Flight NumberIRM081 Date05.06.2018
Departure AirportOIIE Arrival AirportZGGG
Departure Time19.22Arrival Time2.57
Pilot In CommandSaeed TabaTabaei Block Time7.60 Hours
Pilot Rating100 % AircraftEP-MNF [ A310-300ET ]


Distance3,281.00 Nm. Passengers202
Fuel Used34,253 Kg. Cargo16689 Kg
Expense Details Income Details
Fuel Cost27,973 v$Ticket Sales76,760 v$
Pilot Salary6,864 v$ Cargo income35,929.00 v$
Crew Salary1,010 v$ Bonus16,344 v$
Gross Profit91,200 v$ ( 912,000 v$ )

Client Versionv2.2.0.rc3 Max Simrate1
Flight Critique Pilot CommentsZGGG 050100Z 06002MPS 020V100 9999 BKN040 27/25 Q1007 NOSIG//GYA1B ILS RWY 02R

[ Back ]
FSA VA Integration Pack
Copyright © 2010 FSAirlines.net. Version : 0.1.1